Terminal Aerodrome Forecast
Issued by NWS

Home | Current Version | Previous Version | Text Only | Print | Product List | Glossary On
Versions: 1 2 3 4 5 6 7 8 9 10 11 12
000
FTUS45 KGGW 130528
TAFGDV
TAF
KGDV 130528Z 1306/1406 29020G33KT P6SM FEW150
     FM131300 30015KT P6SM FEW070
     FM140400 29010KT P6SM BKN080=

USA.gov is the U.S. government's official web portal to all federal, state and local government web resources and services.